Frontier — WBB3569 — position and weather

sailwx.info

Track history (hours):
 
Tides and Currents Weather Stations Pressure Air Temp Water Temp Dewpoint Dewpoint Depression Visibility Wind Speed Wind Dir Waves Ship Positions

Frontier

Owner: NORDIC FISHERIES INC, NEW BEDFORD, MA. More information available from US FCC via Universal Licensing System and Coast Guard Vessel Documentation Center.

Last reported at 2015-Jul-12 03:04 UTC. Time now 2015-Aug-31 13:20 UTC.
Position N 41°38' W 070°55'.
Warning: this ship's position is 50 days out of date.

Length 28 m.

Type: Fishing. MMSI: 367131750.

Date/timePositionNaut miles runAvg speedWind from/ knotsBaromVisibWave heightAir tempDewpointWater temp
2015-Jul-12 03:04N 41°38' W 070°55'5 9.0
2015-Jul-12 02:33N 41°34' W 070°52'9 8.6
2015-Jul-12 01:32N 41°27' W 071°00'9 9.4
2015-Jul-12 00:33N 41°23' W 071°11'10 9.9
2015-Jul-11 23:33N 41°19' W 071°23'9 9.5
2015-Jul-11 22:33N 41°16' W 071°35'10 9.8
2015-Jul-11 21:33N 41°08' W 071°43'1010.4
2015-Jul-11 20:33N 40°59' W 071°49'10 9.6
2015-Jul-11 19:33N 40°50' W 071°54'1010.0
2015-Jul-11 18:34N 40°41' W 071°59'1010.0
2015-Jul-11 17:33N 40°32' W 072°05'5 5.4
2015-Jul-11 16:33N 40°27' W 072°08'4 4.0
2015-Jul-11 15:33N 40°24' W 072°12'5 4.9
2015-Jul-11 14:33N 40°21' W 072°16'5 4.7
2015-Jul-11 13:33N 40°19' W 072°22'7 2.4
2015-Jul-11 10:33N 40°17' W 072°31'1 0.8
2015-Jul-11 09:33N 40°17' W 072°32'0 0.4
2015-Jul-11 08:33N 40°16' W 072°32'2 1.5
2015-Jul-11 07:27N 40°17' W 072°30'1 1.3
2015-Jul-11 06:32N 40°16' W 072°31'0 0.0
2015-Jul-10 23:14N 40°16' W 072°32'2 2.8
2015-Jul-10 22:33N 40°17' W 072°29'4 0.6
2015-Jul-10 15:24N 40°14' W 072°33'4 0.3
2015-Jul-10 00:33N 40°17' W 072°37'5 4.6
2015-Jul-09 23:33N 40°15' W 072°43'4 3.5
2015-Jul-09 22:32N 40°16' W 072°38'2 2.0
2015-Jul-09 21:33N 40°15' W 072°41'0 0.1
2015-Jul-09 20:32N 40°15' W 072°41'1 0.7
2015-Jul-09 19:33N 40°15' W 072°40'1 0.2
2015-Jul-09 14:31N 40°15' W 072°41'1 1.3
2015-Jul-09 13:23N 40°16' W 072°39'0 0.0
2015-Jul-09 12:33N 40°16' W 072°39'2 0.9
2015-Jul-09 10:33N 40°16' W 072°37'0 0.0
2015-Jul-09 08:33N 40°16' W 072°37'2 0.1
2015-Jul-08 11:16N 40°15' W 072°39'1 1.2
2015-Jul-08 10:34N 40°16' W 072°38'1 1.4
2015-Jul-08 09:33N 40°17' W 072°37'0 0.4
2015-Jul-08 08:33N 40°17' W 072°37'1 1.0
2015-Jul-08 07:33N 40°16' W 072°38'1 0.6
2015-Jul-08 06:15N 40°17' W 072°37'2 1.3
2015-Jul-08 04:31N 40°15' W 072°39'1 0.5
2015-Jul-08 03:30N 40°15' W 072°40'0 0.2
2015-Jul-08 02:12N 40°15' W 072°40'0 0.1
2015-Jul-08 01:07N 40°15' W 072°40'2 2.1
2015-Jul-08 00:18N 40°16' W 072°38'1 0.8
2015-Jul-07 23:33N 40°15' W 072°37'3 3.0
2015-Jul-07 22:33N 40°15' W 072°41'9 4.4
2015-Jul-07 20:29N 40°11' W 072°52'2 2.1
2015-Jul-07 19:32N 40°10' W 072°53'1 0.2
2015-Jul-07 13:11N 40°09' W 072°55'1 1.5
2015-Jul-07 12:22N 40°09' W 072°53'1 0.9
2015-Jul-07 11:28N 40°10' W 072°52'4 0.8
2015-Jul-07 06:18N 40°09' W 072°58'13 3.6
2015-Jul-07 02:33N 39°56' W 073°05'4 4.3
2015-Jul-07 01:32N 39°59' W 073°10'4 3.6
2015-Jul-07 00:33N 39°57' W 073°06'4 2.9
2015-Jul-06 23:05N 39°54' W 073°02'4 4.6
2015-Jul-06 22:19N 39°52' W 072°58'4 4.7
2015-Jul-06 21:30N 39°50' W 072°54'1 1.3
2015-Jul-06 20:33N 39°49' W 072°53'1 1.1
2015-Jul-06 19:32N 39°50' W 072°53'1 1.5
2015-Jul-06 18:33N 39°50' W 072°52'3 2.4
2015-Jul-06 17:27N 39°51' W 072°55'0 0.4
2015-Jul-06 16:32N 39°51' W 072°54'1 1.2
2015-Jul-06 15:31N 39°51' W 072°56'1 1.3
2015-Jul-06 14:33N 39°50' W 072°54'  
2015-Jul-04 06:33N 39°59' W 072°31'1 1.5
2015-Jul-04 05:33N 39°58' W 072°33'1 1.1
2015-Jul-04 04:33N 39°58' W 072°34'0 0.4
2015-Jul-04 03:33N 39°59' W 072°34'2 1.5
2015-Jul-04 02:33N 39°58' W 072°32'1 0.8
2015-Jul-04 01:33N 39°59' W 072°31'0 0.5
2015-Jul-04 00:33N 39°59' W 072°31'1 0.9
2015-Jul-03 23:33N 39°59' W 072°32'2 1.6
2015-Jul-03 22:33N 39°59' W 072°34'1 1.4
2015-Jul-03 21:33N 39°59' W 072°32'1 1.0
2015-Jul-03 20:34N 39°59' W 072°31'1 1.4
2015-Jul-03 19:31N 39°59' W 072°29'3 2.5
2015-Jul-03 18:10N 39°59' W 072°33'0 0.4
2015-Jul-03 17:25N 39°59' W 072°33'1 1.0
2015-Jul-03 16:33N 39°58' W 072°32'2 0.9
2015-Jul-03 14:28N 39°59' W 072°34'1 0.3
2015-Jul-03 12:17N 39°59' W 072°33'1 1.3
2015-Jul-03 11:33N 39°59' W 072°34'1 1.0
2015-Jul-03 10:33N 39°58' W 072°35'1 0.6
2015-Jul-03 09:31N 39°58' W 072°36'0 0.3
2015-Jul-03 08:24N 39°58' W 072°36'3 2.7
2015-Jul-03 07:28N 39°59' W 072°33'2 0.1
2015-Jul-02 18:33N 39°57' W 072°33'7 0.5
2015-Jul-02 04:07N 40°03' W 072°29'1 1.8
2015-Jul-02 03:33N 40°03' W 072°28'  
Track history (hours):
 
Tides and Currents Weather Stations Pressure Air Temp Water Temp Dewpoint Dewpoint Depression Visibility Wind Speed Wind Dir Waves Ship Positions

Frontier

Owner: NORDIC FISHERIES INC, NEW BEDFORD, MA. More information available from US FCC via Universal Licensing System and Coast Guard Vessel Documentation Center.

Last reported at 2015-Jul-12 03:04 UTC. Time now 2015-Aug-31 13:20 UTC.
Position N 41°38' W 070°55'.
Warning: this ship's position is 50 days out of date.

Length 28 m.

Type: Fishing. MMSI: 367131750.

Date/timePositionNaut miles runAvg speedWind from/ knotsBaromVisibWave heightAir tempDewpointWater temp
2015-Jul-12 03:04N 41°38' W 070°55'5 9.0
2015-Jul-12 02:33N 41°34' W 070°52'9 8.6
2015-Jul-12 01:32N 41°27' W 071°00'9 9.4
2015-Jul-12 00:33N 41°23' W 071°11'10 9.9
2015-Jul-11 23:33N 41°19' W 071°23'9 9.5
2015-Jul-11 22:33N 41°16' W 071°35'10 9.8
2015-Jul-11 21:33N 41°08' W 071°43'1010.4
2015-Jul-11 20:33N 40°59' W 071°49'10 9.6
2015-Jul-11 19:33N 40°50' W 071°54'1010.0
2015-Jul-11 18:34N 40°41' W 071°59'1010.0
2015-Jul-11 17:33N 40°32' W 072°05'5 5.4
2015-Jul-11 16:33N 40°27' W 072°08'4 4.0
2015-Jul-11 15:33N 40°24' W 072°12'5 4.9
2015-Jul-11 14:33N 40°21' W 072°16'5 4.7
2015-Jul-11 13:33N 40°19' W 072°22'7 2.4
2015-Jul-11 10:33N 40°17' W 072°31'1 0.8
2015-Jul-11 09:33N 40°17' W 072°32'0 0.4
2015-Jul-11 08:33N 40°16' W 072°32'2 1.5
2015-Jul-11 07:27N 40°17' W 072°30'1 1.3
2015-Jul-11 06:32N 40°16' W 072°31'0 0.0
2015-Jul-10 23:14N 40°16' W 072°32'2 2.8
2015-Jul-10 22:33N 40°17' W 072°29'4 0.6
2015-Jul-10 15:24N 40°14' W 072°33'4 0.3
2015-Jul-10 00:33N 40°17' W 072°37'5 4.6
2015-Jul-09 23:33N 40°15' W 072°43'4 3.5
2015-Jul-09 22:32N 40°16' W 072°38'2 2.0
2015-Jul-09 21:33N 40°15' W 072°41'0 0.1
2015-Jul-09 20:32N 40°15' W 072°41'1 0.7
2015-Jul-09 19:33N 40°15' W 072°40'1 0.2
2015-Jul-09 14:31N 40°15' W 072°41'1 1.3
2015-Jul-09 13:23N 40°16' W 072°39'0 0.0
2015-Jul-09 12:33N 40°16' W 072°39'2 0.9
2015-Jul-09 10:33N 40°16' W 072°37'0 0.0
2015-Jul-09 08:33N 40°16' W 072°37'2 0.1
2015-Jul-08 11:16N 40°15' W 072°39'1 1.2
2015-Jul-08 10:34N 40°16' W 072°38'1 1.4
2015-Jul-08 09:33N 40°17' W 072°37'0 0.4
2015-Jul-08 08:33N 40°17' W 072°37'1 1.0
2015-Jul-08 07:33N 40°16' W 072°38'1 0.6
2015-Jul-08 06:15N 40°17' W 072°37'2 1.3
2015-Jul-08 04:31N 40°15' W 072°39'1 0.5
2015-Jul-08 03:30N 40°15' W 072°40'0 0.2
2015-Jul-08 02:12N 40°15' W 072°40'0 0.1
2015-Jul-08 01:07N 40°15' W 072°40'2 2.1
2015-Jul-08 00:18N 40°16' W 072°38'1 0.8
2015-Jul-07 23:33N 40°15' W 072°37'3 3.0
2015-Jul-07 22:33N 40°15' W 072°41'9 4.4
2015-Jul-07 20:29N 40°11' W 072°52'2 2.1
2015-Jul-07 19:32N 40°10' W 072°53'1 0.2
2015-Jul-07 13:11N 40°09' W 072°55'1 1.5
2015-Jul-07 12:22N 40°09' W 072°53'1 0.9
2015-Jul-07 11:28N 40°10' W 072°52'4 0.8
2015-Jul-07 06:18N 40°09' W 072°58'13 3.6
2015-Jul-07 02:33N 39°56' W 073°05'4 4.3
2015-Jul-07 01:32N 39°59' W 073°10'4 3.6
2015-Jul-07 00:33N 39°57' W 073°06'4 2.9
2015-Jul-06 23:05N 39°54' W 073°02'4 4.6
2015-Jul-06 22:19N 39°52' W 072°58'4 4.7
2015-Jul-06 21:30N 39°50' W 072°54'1 1.3
2015-Jul-06 20:33N 39°49' W 072°53'1 1.1
2015-Jul-06 19:32N 39°50' W 072°53'1 1.5
2015-Jul-06 18:33N 39°50' W 072°52'3 2.4
2015-Jul-06 17:27N 39°51' W 072°55'0 0.4
2015-Jul-06 16:32N 39°51' W 072°54'1 1.2
2015-Jul-06 15:31N 39°51' W 072°56'1 1.3
2015-Jul-06 14:33N 39°50' W 072°54'  
2015-Jul-04 06:33N 39°59' W 072°31'1 1.5
2015-Jul-04 05:33N 39°58' W 072°33'1 1.1
2015-Jul-04 04:33N 39°58' W 072°34'0 0.4
2015-Jul-04 03:33N 39°59' W 072°34'2 1.5
2015-Jul-04 02:33N 39°58' W 072°32'1 0.8
2015-Jul-04 01:33N 39°59' W 072°31'0 0.5
2015-Jul-04 00:33N 39°59' W 072°31'1 0.9
2015-Jul-03 23:33N 39°59' W 072°32'2 1.6
2015-Jul-03 22:33N 39°59' W 072°34'1 1.4
2015-Jul-03 21:33N 39°59' W 072°32'1 1.0
2015-Jul-03 20:34N 39°59' W 072°31'1 1.4
2015-Jul-03 19:31N 39°59' W 072°29'3 2.5
2015-Jul-03 18:10N 39°59' W 072°33'0 0.4
2015-Jul-03 17:25N 39°59' W 072°33'1 1.0
2015-Jul-03 16:33N 39°58' W 072°32'2 0.9
2015-Jul-03 14:28N 39°59' W 072°34'1 0.3
2015-Jul-03 12:17N 39°59' W 072°33'1 1.3
2015-Jul-03 11:33N 39°59' W 072°34'1 1.0
2015-Jul-03 10:33N 39°58' W 072°35'1 0.6
2015-Jul-03 09:31N 39°58' W 072°36'0 0.3
2015-Jul-03 08:24N 39°58' W 072°36'3 2.7
2015-Jul-03 07:28N 39°59' W 072°33'2 0.1
2015-Jul-02 18:33N 39°57' W 072°33'7 0.5
2015-Jul-02 04:07N 40°03' W 072°29'1 1.8
2015-Jul-02 03:33N 40°03' W 072°28'  

Dump ship's entire track history